EGPH - Edinburgh Airport
Distance from station: E 5mi, 14km
Updated: 10/19/2017 9:20am
Light rain, Few clouds
Light rain, Few clouds
 Wind from ENE
Wind: ENE 7 mph , 11 km/h
Temperature: 55°F , 13°C
Dew Point: 52°F , 11°C
Humidity: 88%
Barometer: 29.5 inHg , 999 hPa
Summary: Light Rain
Clouds: Few Clouds
Visibility: 6 miles , 10 km
Cloud details: Few Clouds 1600 ft
2017/10/19 16:20 EGPH 191620Z 06006KT 9999 -RA FEW016 13/11 Q0999